Terminal Aerodrome Forecast
Issued by NWS Sterling, VA

Home | Current Version | Previous Version | Text Only | Print | Product List | Glossary On
Versions: 1 2 3 4 5 6 7 8 9 10 11 12 13 14 15 16 17 18 19 20 21 22
000
FTUS41 KLWX 250520
TAFDCA
TAF
KDCA 250520Z 2506/2606 18005KT P6SM FEW200
     FM251300 20010KT P6SM SCT200
     FM251500 20012G22KT P6SM FEW050 SCT200
     FM260000 19008KT P6SM SCT200=

USA.gov is the U.S. government's official web portal to all federal, state and local government web resources and services.